Mexico City Airport, Mexico

5:50 AM CST on February 10, 2016 (GMT -0600)
Lic Benito Juarez International | | Change Station
CLOSE
Current Station
Airport
Location: Mexico City Airport,
Elevation: 7343 ft
Nearby Weather Stations

Elev 7343 ft 19.43 °N, 99.10 °W | Updated 1 hour ago

Overcast
Overcast
45 °F
Feels Like 40 °F
N
8
Wind Variable Wind from East

Today
High -- | Low -- °F
--% Chance of Precip.
Yesterday
High -- | Low -- °F
Precip. -- in
Pressure 30.40 in
Visibility 7.0 miles
Clouds Overcast 8000 ft
Windchill 40 °F
Dew Point 37 °F
Humidity 76%
Rainfall 0.00 in
Snow Depth Not available.
7:07 AM 6:33 PM
Waxing Crescent, 5% visible
METAR MMMX 101045Z 08007KT 7SM OVC080 07/03 A3040 NOSIG RMK 8/07/ HZY SC BINOVC
Pressure 30.40 in
Visibility 7.0 miles
Clouds Overcast 8000 ft
Windchill 40 °F
Dew Point 37 °F
Humidity 76%
Rainfall 0.00 in
Snow Depth Not available.
7:07 AM 6:33 PM
Waxing Crescent, 5% visible
METAR MMMX 101045Z 08007KT 7SM OVC080 07/03 A3040 NOSIG RMK 8/07/ HZY SC BINOVC

10-Day Weather Forecast

No radar image for this location.
×

Almanac

Astronomy

Feb. 10, 2016 Rise Set
Actual Time
Civil Twilight
Nautical Twilight
Astronomical Twilight
Moon
Length of Visible Light
Length of Day
Tomorrow will be .
, % of the Moon is Illuminated

Today's Extremes

Country Highs Country Lows

Community

WunderPhotos

Upload Photos

1,891,830 photos uploaded!

WunderBlog® & News

Nearby

Air Quality

  Air Quality AQ Index Pollutant
Not available.

Snow Depth

Station Depth Elevation

Earthquake Activity

City Distance Mag. Time & Date
Minimum magnitude displayed is 2.5.

Coastal Water Temperatures

Place Temperature

Stations

Nearby Weather Stations

Station Location Temp. Windchill Dew Point Humidity Wind Precip. Elev Updated Type